Latest Coastal Weather Observations for Port Fairy

IDV60701

Issued at 3:02 am EDT Saturday 25 March 2017 (issued every 10 minutes, with the page automatically refreshed every 10 minutes)

About coastal observations | Map of coastal stations | Coastal observations for VIC | Marine services | Other Formats
Station Details ID: 090175 Name: PORT FAIRY AWS Lat: -38.39 Lon: 142.23 Height: 10.0 m
Data from the previous 72 hours. | See also: Recent months at Port Fairy
Date/Time
EDT
Temp
°C
Wind Pressure Rain since
9am
mm
Weather Cloud Vis
km
Sea
Height
m
Swell
Dir  Spd
kts
Gust
kts
hPa Trend Height
m
Period
s
Dir
25/03:00am 18.2 NE 2 4 - - - - - - - - - -
25/02:30am 18.3 NE 3 4 1011.3 - 0.0 - - - - - - -
25/02:00am 18.6 NNE 6 9 1011.6 - 0.0 - - - - - - -
25/01:30am 18.6 NNE 6 10 1011.8 - 0.0 - - - - - - -
25/01:00am 18.6 NNE 9 16 1012.2 - 0.0 - - - - - - -
25/12:30am 18.6 NNE 9 13 1012.5 - 0.0 - - - - - - -
25/12:00am 18.3 NE 9 13 1012.7 - 0.0 - - - - - - -
 
Date/Time
EDT
Temp
°C
Wind Pressure Rain since
9am
mm
Weather Cloud Vis
km
Sea
Height
m
Swell
Dir  Spd
kts
Gust
kts
hPa Trend Height
m
Period
s
Dir
24/11:30pm 18.6 NE 7 10 1013.6 - 0.0 - - - - - - -
24/11:00pm 18.1 NE 4 5 1014.7 - 0.0 - - - - - - -
24/10:30pm 17.7 NE 3 4 1014.7 - 0.0 - - - - - - -
24/10:00pm 17.7 ENE 4 5 1014.5 - 0.0 - - - - - - -
24/09:30pm 17.5 ENE 3 5 1014.5 - 0.0 - - - - - - -
24/09:00pm 17.6 ENE 4 5 1014.3 - 0.0 - - - - - - -
24/08:30pm 17.4 E 5 7 1014.0 - 0.0 - - - - - - -
24/08:00pm 17.3 E 5 8 1014.2 - 0.0 - - - - - - -
24/07:30pm 17.4 E 6 9 1014.5 - 0.0 - - - - - - -
24/07:00pm 17.9 ESE 6 9 1015.1 - 0.0 - - - - - - -
24/06:30pm 17.9 ESE 7 10 1015.1 - 0.0 - - - - - - -
24/06:00pm 18.0 SE 6 8 1015.3 - 0.0 - - - - - - -
24/05:30pm 18.2 SE 8 9 1015.2 - 0.0 - - - - - - -
24/05:00pm 18.4 SE 7 10 1015.1 - 0.0 - - - - - - -
24/04:30pm 19.5 SE 8 11 1015.2 - 0.0 - - - - - - -
24/04:00pm 19.1 SE 9 12 1015.1 - 0.0 - - - - - - -
24/03:30pm 19.5 SE 9 11 1015.2 - 0.0 - - - - - - -
24/03:00pm 19.9 SE 7 10 1016.0 - 0.0 - - - - - - -
24/02:30pm 19.6 SE 6 8 1016.3 - 0.0 - - - - - - -
24/02:00pm 21.5 E 6 9 1016.4 - 0.0 - - - - - - -
24/01:30pm 21.1 E 7 10 1016.9 - 0.0 - - - - - - -
24/01:00pm 20.3 E 6 10 1017.5 - 0.0 - - - - - - -
24/12:30pm 19.0 E 6 9 1018.0 - 0.0 - - - - - - -
24/12:00pm 17.7 E 6 10 1018.7 - 0.0 - - - - - - -
24/11:30am 17.6 E 7 12 1018.9 - 0.0 - - - - - - -
24/11:00am 17.0 ESE 8 11 1019.4 - 0.0 - - - - - - -
24/10:30am 16.8 ESE 8 12 1019.3 - 0.0 - - - - - - -
24/10:00am 16.0 E 8 13 1019.5 - 0.0 - - - - - - -
24/09:30am 15.7 ESE 7 11 1019.8 - 0.0 - - - - - - -
24/09:00am 15.8 ESE 8 13 1019.5 - 0.0 - - - - - - -
24/08:30am 15.2 ESE 7 11 1019.4 - 0.0 - - - - - - -
24/08:00am 14.7 E 6 8 1019.4 - 0.0 - - - - - - -
24/07:30am 14.7 E 5 8 1019.1 - 0.0 - - - - - - -
24/07:00am 14.8 ENE 5 8 1018.8 - 0.0 - - - - - - -
24/06:30am 15.1 ENE 5 8 1018.7 - 0.0 - - - - - - -
24/06:00am 15.1 E 7 10 1018.4 - 0.0 - - - - - - -
24/05:30am 15.2 E 7 10 1018.6 - 0.0 - - - - - - -
24/05:00am 15.1 E 7 10 1018.6 - 0.0 - - - - - - -
24/04:30am 14.8 E 6 9 1018.8 - 0.0 - - - - - - -
24/04:00am 14.7 E 4 6 1019.4 - 0.0 - - - - - - -
24/03:30am 14.8 ENE 3 5 1019.9 - 0.0 - - - - - - -
24/03:00am 15.1 E 5 7 1020.0 - 0.0 - - - - - - -
24/02:30am 15.3 E 5 7 1020.3 - 0.0 - - - - - - -
24/02:00am 15.5 E 6 9 1020.2 - 0.0 - - - - - - -
24/01:30am 15.7 E 6 9 1020.5 - 0.0 - - - - - - -
24/01:00am 15.8 ESE 7 11 1020.6 - 0.0 - - - - - - -
24/12:30am 15.9 ESE 7 12 1020.7 - 0.0 - - - - - - -
24/12:00am 16.0 ESE 9 15 1020.8 - 0.0 - - - - - - -
 
Date/Time
EDT
Temp
°C
Wind Pressure Rain since
9am
mm
Weather Cloud Vis
km
Sea
Height
m
Swell
Dir  Spd
kts
Gust
kts
hPa Trend Height
m
Period
s
Dir
23/11:30pm 16.0 ESE 9 14 1021.0 - 0.0 - - - - - - -
23/11:00pm 16.1 ESE 9 13 1021.3 - 0.0 - - - - - - -
23/10:30pm 16.1 ESE 11 14 1021.4 - 0.0 - - - - - - -
23/10:00pm 16.2 ESE 10 17 1021.8 - 0.0 - - - - - - -
23/09:30pm 16.3 ESE 12 16 1021.7 - 0.0 - - - - - - -
23/09:00pm 16.4 ESE 15 19 1021.0 - 0.0 - - - - - - -
23/08:30pm 16.5 ESE 14 19 1020.7 - 0.0 - - - - - - -
23/08:00pm 16.6 ESE 15 20 1020.4 - 0.0 - - - - - - -
23/07:30pm 16.9 SE 17 23 1020.4 - 0.0 - - - - - - -
23/07:00pm 17.3 SE 17 22 1020.1 - 0.0 - - - - - - -
23/06:30pm 17.9 SE 16 21 1019.9 - 0.0 - - - - - - -
23/06:00pm 18.3 SE 17 22 1019.9 - 0.0 - - - - - - -
23/05:30pm 18.4 SE 17 23 1020.0 - 0.0 - - - - - - -
23/05:00pm 18.8 SE 17 23 1020.0 - 0.0 - - - - - - -
23/04:30pm 19.1 SE 15 20 1020.2 - 0.0 - - - - - - -
23/04:00pm 19.3 SE 16 21 1020.1 - 0.0 - - - - - - -
23/03:30pm 19.6 SE 15 21 1020.1 - 0.0 - - - - - - -
23/03:00pm 19.7 SE 14 20 1020.5 - 0.0 - - - - - - -
23/02:30pm 19.7 SE 14 19 1020.9 - 0.0 - - - - - - -
23/02:00pm 19.8 SE 13 18 1021.2 - 0.0 - - - - - - -
23/01:30pm 19.7 SE 13 18 1021.4 - 0.0 - - - - - - -
23/01:00pm 19.7 SE 13 18 1021.7 - 0.0 - - - - - - -
23/12:30pm 19.5 SE 11 15 1022.0 - 0.0 - - - - - - -
23/12:00pm 19.1 SE 11 15 1022.5 - 0.0 - - - - - - -
23/11:30am 18.9 SE 11 15 1022.7 - 0.0 - - - - - - -
23/11:00am 18.7 SE 11 15 1022.4 - 0.0 - - - - - - -
23/10:30am 18.4 SE 9 13 1022.5 - 0.0 - - - - - - -
23/10:00am 18.1 ESE 10 13 1022.5 - 0.0 - - - - - - -
23/09:30am 17.6 ESE 9 13 1022.4 - 0.0 - - - - - - -
23/09:00am 17.0 SE 10 13 1022.2 - 0.0 - - - - - - -
23/08:30am 16.4 SE 9 12 1022.0 - 0.0 - - - - - - -
23/08:00am 15.9 ESE 10 14 1021.7 - 0.0 - - - - - - -
23/07:30am 15.8 ESE 9 14 1021.3 - 0.0 - - - - - - -
23/07:00am 15.9 ESE 10 14 1021.1 - 0.0 - - - - - - -
23/06:30am 15.9 ESE 10 14 1020.8 - 0.0 - - - - - - -
23/06:00am 15.9 ESE 10 13 1020.6 - 0.0 - - - - - - -
23/05:30am 15.9 SE 10 14 1020.6 - 0.0 - - - - - - -
23/05:00am 15.9 SE 11 15 1020.7 - 0.0 - - - - - - -
23/04:30am 15.8 SE 10 14 1020.8 - 0.0 - - - - - - -
23/04:00am 15.9 SE 10 13 1020.8 - 0.0 - - - - - - -
23/03:30am 15.9 SE 10 13 1020.8 - 0.0 - - - - - - -
23/03:00am 15.9 SE 10 13 1020.9 - 0.0 - - - - - - -
23/02:30am 16.0 SE 8 12 1020.7 - 0.0 - - - - - - -
23/02:00am 16.0 SE 9 12 1020.9 - 0.0 - - - - - - -
23/01:30am 16.2 ESE 9 13 1020.9 - 0.0 - - - - - - -
23/01:00am 16.2 ESE 9 14 1020.9 - 0.0 - - - - - - -
23/12:30am 16.1 ESE 10 14 1021.1 - 0.0 - - - - - - -
23/12:00am 16.2 ESE 10 13 1021.0 - 0.0 - - - - - - -
 
Date/Time
EDT
Temp
°C
Wind Pressure Rain since
9am
mm
Weather Cloud Vis
km
Sea
Height
m
Swell
Dir  Spd
kts
Gust
kts
hPa Trend Height
m
Period
s
Dir
22/11:30pm 16.2 ESE 9 14 1021.2 - 0.0 - - - - - - -
22/11:00pm 16.4 SE 11 13 1021.2 - 0.0 - - - - - - -
22/10:30pm 16.5 ESE 10 14 1020.8 - 0.0 - - - - - - -
22/10:00pm 16.6 SE 11 14 1020.8 - 0.0 - - - - - - -
22/09:30pm 16.4 SE 10 14 1020.8 - 0.0 - - - - - - -
22/09:00pm 16.4 SE 13 16 1020.5 - 0.0 - - - - - - -
22/08:30pm 16.7 SE 11 13 1020.4 - 0.0 - - - - - - -
22/08:00pm 17.1 SSE 12 15 1020.0 - 0.0 - - - - - - -
22/07:30pm 17.0 SSE 13 16 1020.0 - 0.0 - - - - - - -
22/07:00pm 17.2 SSE 12 15 1019.9 - 0.0 - - - - - - -
22/06:30pm 17.4 SSE 13 16 1019.8 - 0.0 - - - - - - -
22/06:00pm 17.7 SSE 12 15 1019.2 - 0.0 - - - - - - -
22/05:30pm 17.6 SSE 11 14 1019.2 - 0.0 - - - - - - -
22/05:00pm 17.3 SSE 14 19 1019.1 - 0.0 - - - - - - -
22/04:30pm 17.7 SSE 12 15 1019.1 - 0.0 - - - - - - -
22/04:00pm 18.1 SSE 11 14 1019.2 - 0.0 - - - - - - -
22/03:30pm 19.1 SSE 10 14 1019.3 - 0.0 - - - - - - -
22/03:00pm 18.7 SSE 11 14 1019.2 - 0.0 - - - - - - -
22/02:30pm 18.4 SSE 13 17 1019.2 - 0.0 - - - - - - -
22/02:00pm 19.2 SSE 12 17 1019.2 - 0.0 - - - - - - -
22/01:30pm 19.1 SSE 12 16 1019.6 - 0.0 - - - - - - -
22/01:00pm 18.9 SSE 12 16 1019.8 - 0.0 - - - - - - -
22/12:30pm 18.8 SSE 11 15 1019.9 - 0.0 - - - - - - -
22/12:00pm 18.1 SSE 11 14 1020.0 - 0.0 - - - - - - -
22/11:30am 17.8 SSE 11 15 1020.2 - 0.0 - - - - - - -
22/11:00am 17.5 SSE 13 16 1020.2 - 0.0 - - - - - - -
22/10:30am 17.1 SSE 13 17 1020.0 - 0.0 - - - - - - -
22/10:00am 16.9 SSE 13 18 1019.6 - 0.0 - - - - - - -
22/09:30am 16.7 SSE 13 16 1019.7 - 0.0 - - - - - - -
22/09:00am 16.6 SSE 12 17 1019.3 - 51.2 - - - - - - -
22/08:30am 16.5 SSE 11 15 1018.8 - 51.2 - - - - - - -
22/08:00am 16.4 SE 11 14 1018.0 - 51.2 - - - - - - -
22/07:30am 16.4 SE 12 15 1017.6 - 51.2 - - - - - - -
22/07:00am 16.3 SE 12 17 1017.2 - 51.2 - - - - - - -
22/06:30am 16.1 SE 14 19 1017.3 - 51.2 - - - - - - -
22/06:00am 16.2 SSE 16 21 1017.2 - 51.2 - - - - - - -
22/05:30am 16.4 SSE 15 21 1017.2 - 51.2 - - - - - - -
22/05:00am 16.3 SE 15 20 1016.7 - 51.2 - - - - - - -
22/04:30am 16.3 SSE 14 21 1016.6 - 51.2 - - - - - - -
22/04:00am 16.1 SSE 17 23 1016.5 - 51.2 - - - - - - -
22/03:30am 16.2 SSE 19 25 1016.2 - 51.2 - - - - - - -

Other Formats:

Comma delimited format used in spreadsheet applications
http://www.bom.gov.au/fwo/IDV60701/IDV60701.94830.axf

JavaScript Object Notation format (JSON) in row-major order
http://www.bom.gov.au/fwo/IDV60701/IDV60701.94830.json